Time,TemperatureF,DewpointF,PressureIn,WindDirection,WindDirectionDegrees,WindSpeedMPH,WindSpeedGustMPH,Humidity,HourlyPrecipIn,Conditions,Clouds,dailyrainin,SoftwareType,DateUTC
2013-06-20 00:00:00,43.0,34.6,30.08,WNW,303,0.0,0.0,72,0.00,,SCT,0.00,VWS V14.01,2013-06-20 07:00:00,
2013-06-20 00:05:00,43.0,34.6,30.08,WNW,303,0.0,0.0,72,0.00,,SCT,0.00,VWS V14.01,2013-06-20 07:05:00,
2013-06-20 00:10:00,42.4,34.1,30.08,South,191,0.0,0.0,72,0.00,,SCT,0.00,VWS V14.01,2013-06-20 07:10:00,
2013-06-20 00:15:00,41.9,33.5,30.08,South,184,0.0,0.0,72,0.00,,SCT,0.00,VWS V14.01,2013-06-20 07:15:00,
2013-06-20 00:20:00,41.5,33.2,30.08,South,184,0.0,0.0,72,0.00,,SCT,0.00,VWS V14.01,2013-06-20 07:20:00,
2013-06-20 00:25:00,41.2,33.5,30.08,SE,128,0.0,0.0,74,0.00,,SCT,0.00,VWS V14.01,2013-06-20 07:25:00,
2013-06-20 00:30:00,41.0,34.0,30.08,ESE,109,0.0,4.0,76,0.00,,SCT,0.00,VWS V14.01,2013-06-20 07:30:00,
2013-06-20 00:31:00,41.0,34.0,30.08,SSE,165,0.0,0.0,76,0.00,,SCT,0.00,VWS V14.01,2013-06-20 07:31:00,
2013-06-20 00:36:00,41.0,34.7,30.08,SSE,165,0.0,5.4,78,0.00,,SCT,0.00,VWS V14.01,2013-06-20 07:36:00,
2013-06-20 00:41:00,40.8,34.8,30.08,SSE,165,2.7,5.4,79,0.00,,SCT,0.00,VWS V14.01,2013-06-20 07:41:00,
2013-06-20 00:45:00,40.6,35.0,30.08,SE,129,0.0,6.3,80,0.00,,SCT,0.00,VWS V14.01,2013-06-20 07:45:00,
2013-06-20 00:46:00,40.6,35.0,30.08,SE,142,3.6,3.6,80,0.00,,SCT,0.00,VWS V14.01,2013-06-20 07:46:00,
2013-06-20 00:51:00,40.6,35.0,30.08,ENE,68,0.0,3.6,80,0.00,,SCT,0.00,VWS V14.01,2013-06-20 07:51:00,
2013-06-20 00:56:00,40.6,35.0,30.08,East,93,0.0,3.6,80,0.00,,SCT,0.00,VWS V14.01,2013-06-20 07:56:00,
2013-06-20 01:00:00,40.6,34.7,30.08,ESE,120,0.0,3.6,79,0.00,,SCT,0.00,VWS V14.01,2013-06-20 08:00:00,
2013-06-20 01:01:00,40.5,34.8,30.08,ESE,119,0.0,0.0,80,0.00,,SCT,0.00,VWS V14.01,2013-06-20 08:01:00,
2013-06-20 01:06:00,40.3,34.3,30.05,WSW,238,0.0,0.0,79,0.00,,SCT,0.00,VWS V14.01,2013-06-20 08:06:00,
2013-06-20 01:11:00,40.1,34.1,30.05,South,171,0.0,0.0,79,0.00,,SCT,0.00,VWS V14.01,2013-06-20 08:11:00,
2013-06-20 01:15:00,39.7,33.5,30.05,SE,140,0.0,0.0,78,0.00,,SCT,0.00,VWS V14.01,2013-06-20 08:15:00,
2013-06-20 01:16:00,39.7,33.5,30.05,ESE,120,3.1,3.1,78,0.00,,SCT,0.00,VWS V14.01,2013-06-20 08:16:00,
2013-06-20 01:22:00,39.4,33.1,30.05,SSE,152,0.0,3.1,78,0.00,,SCT,0.00,VWS V14.01,2013-06-20 08:22:00,
2013-06-20 01:27:00,39.4,32.8,30.05,SE,141,0.0,3.1,77,0.00,,SCT,0.00,VWS V14.01,2013-06-20 08:27:00,
2013-06-20 01:30:00,39.4,32.8,30.05,South,180,0.0,3.1,77,0.00,,SCT,0.00,VWS V14.01,2013-06-20 08:30:00,
2013-06-20 01:32:00,39.4,33.1,30.05,South,181,0.0,0.0,78,0.00,,SCT,0.00,VWS V14.01,2013-06-20 08:32:00,
2013-06-20 01:37:00,39.4,33.1,30.05,South,170,0.0,0.0,78,0.00,,SCT,0.00,VWS V14.01,2013-06-20 08:37:00,
2013-06-20 01:42:00,39.2,32.9,30.05,South,191,0.0,0.0,78,0.00,,SCT,0.00,VWS V14.01,2013-06-20 08:42:00,
2013-06-20 01:45:00,39.2,33.2,30.05,SSW,198,0.0,0.0,79,0.00,,SCT,0.00,VWS V14.01,2013-06-20 08:45:00,
2013-06-20 01:47:00,39.2,33.2,30.05,South,182,0.0,0.0,79,0.00,,SCT,0.00,VWS V14.01,2013-06-20 08:47:00,
2013-06-20 01:52:00,39.2,33.6,30.05,SSE,167,0.0,4.9,80,0.00,,SCT,0.00,VWS V14.01,2013-06-20 08:52:00,
2013-06-20 01:57:00,39.2,33.6,30.05,South,184,2.7,4.9,80,0.00,,SCT,0.00,VWS V14.01,2013-06-20 08:57:00,
2013-06-20 02:00:00,39.2,33.2,30.05,WNW,294,0.0,4.9,79,0.00,,SCT,0.00,VWS V14.01,2013-06-20 09:00:00,
2013-06-20 02:02:00,39.2,33.2,30.05,WSW,253,0.0,0.0,79,0.00,,SCT,0.00,VWS V14.01,2013-06-20 09:02:00,
2013-06-20 02:07:00,39.0,33.1,30.05,West,272,0.0,0.0,79,0.00,,SCT,0.00,VWS V14.01,2013-06-20 09:07:00,
2013-06-20 02:12:00,39.0,33.1,30.05,WNW,292,0.0,0.0,79,0.00,,SCT,0.00,VWS V14.01,2013-06-20 09:12:00,
2013-06-20 02:15:00,39.0,33.1,30.05,WNW,292,0.0,0.0,79,0.00,,SCT,0.00,VWS V14.01,2013-06-20 09:15:00,
2013-06-20 02:17:00,39.0,33.1,30.05,WNW,292,0.0,0.0,79,0.00,,SCT,0.00,VWS V14.01,2013-06-20 09:17:00,
2013-06-20 02:22:00,39.0,33.1,30.05,WNW,292,0.0,0.0,79,0.00,,SCT,0.00,VWS V14.01,2013-06-20 09:22:00,
2013-06-20 02:27:00,39.0,33.1,30.05,NW,326,0.0,0.0,79,0.00,,SCT,0.00,VWS V14.01,2013-06-20 09:27:00,
2013-06-20 02:30:00,39.2,32.9,30.05,NW,326,0.0,0.0,78,0.00,,SCT,0.00,VWS V14.01,2013-06-20 09:30:00,
2013-06-20 02:33:00,39.2,32.9,30.05,NW,326,0.0,0.0,78,0.00,,SCT,0.00,VWS V14.01,2013-06-20 09:33:00,
2013-06-20 02:38:00,39.0,32.8,30.05,NW,326,0.0,0.0,78,0.00,,SCT,0.00,VWS V14.01,2013-06-20 09:38:00,
2013-06-20 02:43:00,38.8,32.6,30.05,NW,326,0.0,0.0,78,0.00,,SCT,0.00,VWS V14.01,2013-06-20 09:43:00,
2013-06-20 02:45:00,38.8,32.6,30.05,NW,326,0.0,0.0,78,0.00,,SCT,0.00,VWS V14.01,2013-06-20 09:45:00,
2013-06-20 02:48:00,38.8,32.6,30.05,NW,326,0.0,0.0,78,0.00,,SCT,0.00,VWS V14.01,2013-06-20 09:48:00,
2013-06-20 02:53:00,38.7,32.4,30.05,NW,326,0.0,0.0,78,0.00,,SCT,0.00,VWS V14.01,2013-06-20 09:53:00,
2013-06-20 02:58:00,38.7,32.4,30.05,NW,326,0.0,0.0,78,0.00,,SCT,0.00,VWS V14.01,2013-06-20 09:58:00,
2013-06-20 03:00:00,38.7,32.7,30.05,NW,326,0.0,0.0,79,0.00,,SCT,0.00,VWS V14.01,2013-06-20 10:00:00,
2013-06-20 03:03:00,38.7,32.7,30.05,NW,326,0.0,0.0,79,0.00,,SCT,0.00,VWS V14.01,2013-06-20 10:03:00,
2013-06-20 03:08:00,38.8,32.9,30.05,NW,326,0.0,0.0,79,0.00,,SCT,0.00,VWS V14.01,2013-06-20 10:08:00,
2013-06-20 03:13:00,38.8,32.9,30.05,NW,326,0.0,0.0,79,0.00,,SCT,0.00,VWS V14.01,2013-06-20 10:13:00,
2013-06-20 03:15:00,38.8,32.9,30.05,NW,326,0.0,0.0,79,0.00,,SCT,0.00,VWS V14.01,2013-06-20 10:15:00,
2013-06-20 03:18:00,38.8,32.9,30.05,NW,326,0.0,0.0,79,0.00,,SCT,0.00,VWS V14.01,2013-06-20 10:18:00,
2013-06-20 03:23:00,38.8,32.9,30.05,NW,326,0.0,0.0,79,0.00,,SCT,0.00,VWS V14.01,2013-06-20 10:23:00,
2013-06-20 03:28:00,38.7,32.7,30.05,NW,326,0.0,0.0,79,0.00,,SCT,0.00,VWS V14.01,2013-06-20 10:28:00,
2013-06-20 03:33:00,38.7,32.7,30.05,NW,326,0.0,0.0,79,0.00,,SCT,0.00,VWS V14.01,2013-06-20 10:33:00,
2013-06-20 03:45:00,39.0,34.0,30.05,NW,326,0.0,0.0,82,0.00,,SCT,0.00,VWS V14.01,2013-06-20 10:45:00,
2013-06-20 03:46:00,39.0,34.0,30.05,NW,326,0.0,0.0,82,0.00,,SCT,0.00,VWS V14.01,2013-06-20 10:46:00,
2013-06-20 03:51:00,39.0,34.3,30.05,NW,326,0.0,0.0,83,0.00,,SCT,0.00,VWS V14.01,2013-06-20 10:51:00,
2013-06-20 03:56:00,39.0,34.3,30.05,NW,326,0.0,0.0,83,0.00,,SCT,0.00,VWS V14.01,2013-06-20 10:56:00,
2013-06-20 04:00:00,39.0,34.3,30.05,NW,326,0.0,0.0,83,0.00,,SCT,0.00,VWS V14.01,2013-06-20 11:00:00,
2013-06-20 04:01:00,39.0,34.3,30.05,NW,326,0.0,0.0,83,0.00,,SCT,0.00,VWS V14.01,2013-06-20 11:01:00,
2013-06-20 04:06:00,39.0,34.6,30.05,NW,326,0.0,0.0,84,0.00,,SCT,0.00,VWS V14.01,2013-06-20 11:06:00,
2013-06-20 04:11:00,39.2,34.5,30.05,NW,326,0.0,0.0,83,0.00,,SCT,0.00,VWS V14.01,2013-06-20 11:11:00,
2013-06-20 04:15:00,38.8,34.1,30.05,NW,326,0.0,0.0,83,0.00,,SCT,0.00,VWS V14.01,2013-06-20 11:15:00,
2013-06-20 04:16:00,38.8,34.1,30.05,NW,326,0.0,0.0,83,0.00,,SCT,0.00,VWS V14.01,2013-06-20 11:16:00,
2013-06-20 04:21:00,38.5,33.8,30.05,NW,326,0.0,0.0,83,0.00,,SCT,0.00,VWS V14.01,2013-06-20 11:21:00,
2013-06-20 04:26:00,38.1,33.4,30.05,NW,326,0.0,0.0,83,0.00,,SCT,0.00,VWS V14.01,2013-06-20 11:26:00,
2013-06-20 04:30:00,38.1,33.7,30.05,NW,326,0.0,0.0,84,0.00,,SCT,0.00,VWS V14.01,2013-06-20 11:30:00,
2013-06-20 04:31:00,38.1,33.7,30.05,NW,326,0.0,0.0,84,0.00,,SCT,0.00,VWS V14.01,2013-06-20 11:31:00,
2013-06-20 04:36:00,37.9,33.5,30.05,SSE,163,0.0,0.0,84,0.00,,SCT,0.00,VWS V14.01,2013-06-20 11:36:00,
2013-06-20 04:42:00,37.8,33.4,30.05,South,186,0.0,0.0,84,0.00,,SCT,0.00,VWS V14.01,2013-06-20 11:42:00,
2013-06-20 04:45:00,37.6,32.9,30.05,SSE,159,0.0,4.5,83,0.00,,SCT,0.00,VWS V14.01,2013-06-20 11:45:00,
2013-06-20 04:47:00,37.4,32.7,30.05,South,185,0.0,0.0,83,0.00,,SCT,0.00,VWS V14.01,2013-06-20 11:47:00,
2013-06-20 04:52:00,37.4,32.7,30.05,WSW,241,4.0,4.0,83,0.00,,SCT,0.00,VWS V14.01,2013-06-20 11:52:00,
2013-06-20 04:57:00,37.2,32.5,30.05,West,262,0.0,4.0,83,0.00,,SCT,0.00,VWS V14.01,2013-06-20 11:57:00,
2013-06-20 05:00:00,37.0,32.7,30.05,SSW,204,0.0,4.0,84,0.00,,SCT,0.00,VWS V14.01,2013-06-20 12:00:00,
2013-06-20 05:02:00,37.0,32.7,30.05,WSW,244,0.0,0.0,84,0.00,,SCT,0.00,VWS V14.01,2013-06-20 12:02:00,
2013-06-20 05:07:00,36.9,32.5,30.05,WSW,252,0.0,4.9,84,0.00,,SCT,0.00,VWS V14.01,2013-06-20 12:07:00,
2013-06-20 05:12:00,36.9,32.8,30.05,West,281,0.0,6.7,85,0.00,,SCT,0.00,VWS V14.01,2013-06-20 12:12:00,
2013-06-20 05:15:00,36.9,32.8,30.05,SSE,167,2.2,6.7,85,0.00,,SCT,0.00,VWS V14.01,2013-06-20 12:15:00,
2013-06-20 05:17:00,36.7,32.6,30.05,SSW,195,0.0,2.7,85,0.00,,SCT,0.00,VWS V14.01,2013-06-20 12:17:00,
2013-06-20 05:22:00,36.7,32.6,30.05,West,274,3.1,4.0,85,0.00,,SCT,0.00,VWS V14.01,2013-06-20 12:22:00,
2013-06-20 05:27:00,36.7,32.9,30.05,WSW,245,0.0,4.0,86,0.00,,SCT,0.00,VWS V14.01,2013-06-20 12:27:00,
2013-06-20 05:30:00,36.7,32.9,30.05,SSW,200,0.0,4.0,86,0.00,,SCT,0.00,VWS V14.01,2013-06-20 12:30:00,
2013-06-20 05:32:00,36.7,32.9,30.05,SSW,201,0.0,0.0,86,0.00,,SCT,0.00,VWS V14.01,2013-06-20 12:32:00,
2013-06-20 05:38:00,36.7,32.9,30.05,SSE,155,0.0,5.4,86,0.00,,SCT,0.00,VWS V14.01,2013-06-20 12:38:00,
2013-06-20 05:43:00,36.5,32.7,30.05,WSW,253,3.6,5.4,86,0.00,,SCT,0.00,VWS V14.01,2013-06-20 12:43:00,
2013-06-20 05:45:00,36.5,32.7,30.05,South,171,3.1,5.4,86,0.00,,SCT,0.00,VWS V14.01,2013-06-20 12:45:00,
2013-06-20 05:48:00,36.5,32.7,30.05,South,171,0.0,3.1,86,0.00,,SCT,0.00,VWS V14.01,2013-06-20 12:48:00,
2013-06-20 05:53:00,36.5,32.7,30.02,SSW,195,0.0,3.1,86,0.00,,SCT,0.00,VWS V14.01,2013-06-20 12:53:00,
2013-06-20 05:58:00,36.7,32.9,30.02,SSE,167,0.0,3.1,86,0.00,,SCT,0.00,VWS V14.01,2013-06-20 12:58:00,
2013-06-20 06:00:00,36.7,32.9,30.02,SSE,167,0.0,3.1,86,0.00,,SCT,0.00,VWS V14.01,2013-06-20 13:00:00,
2013-06-20 06:03:00,36.7,32.9,30.02,SSE,166,0.0,0.0,86,0.00,,SCT,0.00,VWS V14.01,2013-06-20 13:03:00,
2013-06-20 06:08:00,36.7,32.6,30.05,SSE,166,0.0,0.0,85,0.00,,SCT,0.00,VWS V14.01,2013-06-20 13:08:00,
2013-06-20 06:13:00,36.5,32.4,30.05,SSE,166,0.0,0.0,85,0.00,,SCT,0.00,VWS V14.01,2013-06-20 13:13:00,
2013-06-20 06:15:00,36.5,32.1,30.05,SSE,166,0.0,0.0,84,0.00,,SCT,0.00,VWS V14.01,2013-06-20 13:15:00,
2013-06-20 06:18:00,36.5,32.1,30.05,SSE,166,0.0,0.0,84,0.00,,SCT,0.00,VWS V14.01,2013-06-20 13:18:00,
2013-06-20 06:23:00,36.7,32.3,30.05,NW,308,0.0,0.0,84,0.00,,SCT,0.00,VWS V14.01,2013-06-20 13:23:00,
2013-06-20 06:29:00,36.9,32.5,30.05,NW,319,0.0,0.0,84,0.00,,SCT,0.00,VWS V14.01,2013-06-20 13:29:00,
2013-06-20 06:30:00,37.0,33.0,30.05,NW,319,0.0,0.0,85,0.00,,SCT,0.00,VWS V14.01,2013-06-20 13:30:00,
2013-06-20 06:34:00,37.4,33.6,30.05,NW,317,0.0,0.0,86,0.00,,SCT,0.00,VWS V14.01,2013-06-20 13:34:00,
2013-06-20 06:39:00,37.4,33.6,30.05,NW,307,0.0,0.0,86,0.00,,SCT,0.00,VWS V14.01,2013-06-20 13:39:00,
2013-06-20 06:44:00,37.2,33.1,30.05,NW,307,0.0,0.0,85,0.00,,SCT,0.00,VWS V14.01,2013-06-20 13:44:00,
2013-06-20 06:45:00,37.2,33.1,30.05,NW,308,0.0,0.0,85,0.00,,SCT,0.00,VWS V14.01,2013-06-20 13:45:00,
2013-06-20 06:49:00,37.2,33.1,30.05,NW,307,0.0,0.0,85,0.00,,SCT,0.00,VWS V14.01,2013-06-20 13:49:00,
2013-06-20 06:54:00,37.4,33.3,30.05,NW,307,0.0,0.0,85,0.00,,SCT,0.00,VWS V14.01,2013-06-20 13:54:00,
2013-06-20 06:59:00,37.8,34.0,30.05,NW,307,0.0,0.0,86,0.00,,SCT,0.00,VWS V14.01,2013-06-20 13:59:00,
2013-06-20 07:00:00,37.8,34.0,30.05,NW,307,0.0,0.0,86,0.00,,SCT,0.00,VWS V14.01,2013-06-20 14:00:00,
2013-06-20 07:04:00,38.1,34.0,30.05,NW,307,0.0,0.0,85,0.00,,SCT,0.00,VWS V14.01,2013-06-20 14:04:00,
2013-06-20 07:09:00,38.5,33.8,30.05,South,189,0.0,0.0,83,0.00,,SCT,0.00,VWS V14.01,2013-06-20 14:09:00,
2013-06-20 07:14:00,38.8,33.8,30.05,SSE,162,0.0,0.0,82,0.00,,SCT,0.00,VWS V14.01,2013-06-20 14:14:00,
2013-06-20 07:15:00,38.8,33.8,30.05,SSE,162,0.0,0.0,82,0.00,,SCT,0.00,VWS V14.01,2013-06-20 14:15:00,
2013-06-20 07:20:00,39.4,33.7,30.05,South,180,0.0,0.0,80,0.00,,SCT,0.00,VWS V14.01,2013-06-20 14:20:00,
2013-06-20 07:25:00,39.9,33.3,30.05,SSE,166,3.6,5.4,77,0.00,,SCT,0.00,VWS V14.01,2013-06-20 14:25:00,
2013-06-20 07:30:00,40.6,33.7,30.05,West,272,0.0,5.4,76,0.00,,SCT,0.00,VWS V14.01,2013-06-20 14:30:00,
2013-06-20 07:35:00,41.0,33.0,30.05,SSE,166,3.1,5.4,73,0.00,,SCT,0.00,VWS V14.01,2013-06-20 14:35:00,
2013-06-20 07:40:00,41.0,32.7,30.05,South,179,0.0,5.4,72,0.00,,SCT,0.00,VWS V14.01,2013-06-20 14:40:00,
2013-06-20 07:45:00,41.2,32.5,30.05,South,176,2.7,2.7,71,0.00,,SCT,0.00,VWS V14.01,2013-06-20 14:45:00,
2013-06-20 07:50:00,41.2,32.8,30.05,South,181,0.0,3.1,72,0.00,,SCT,0.00,VWS V14.01,2013-06-20 14:50:00,
2013-06-20 07:55:00,41.4,33.0,30.05,SSW,206,0.0,3.1,72,0.00,,SCT,0.00,VWS V14.01,2013-06-20 14:55:00,
2013-06-20 08:00:00,41.5,32.8,30.05,WSW,237,0.0,0.0,71,0.00,,SCT,0.00,VWS V14.01,2013-06-20 15:00:00,
2013-06-20 08:05:00,41.7,33.4,30.05,South,171,0.0,0.0,72,0.00,,SCT,0.00,VWS V14.01,2013-06-20 15:05:00,
2013-06-20 08:10:00,41.9,33.2,30.05,South,181,0.0,0.0,71,0.00,,SCT,0.00,VWS V14.01,2013-06-20 15:10:00,
2013-06-20 08:15:00,42.3,33.9,30.05,SW,234,0.0,0.0,72,0.00,,SCT,0.00,VWS V14.01,2013-06-20 15:15:00,
2013-06-20 08:21:00,42.4,33.7,30.05,SW,219,0.0,0.0,71,0.00,,SCT,0.00,VWS V14.01,2013-06-20 15:21:00,
2013-06-20 08:26:00,42.4,33.7,30.05,SW,219,0.0,0.0,71,0.00,,SCT,0.00,VWS V14.01,2013-06-20 15:26:00,
2013-06-20 08:30:00,42.8,33.7,30.05,South,186,0.0,0.0,70,0.00,,SCT,0.00,VWS V14.01,2013-06-20 15:30:00,
2013-06-20 08:31:00,42.8,33.7,30.05,South,186,0.0,0.0,70,0.00,,SCT,0.00,VWS V14.01,2013-06-20 15:31:00,
2013-06-20 08:36:00,43.0,33.9,30.05,South,186,0.0,0.0,70,0.00,,SCT,0.00,VWS V14.01,2013-06-20 15:36:00,
2013-06-20 08:41:00,43.2,33.7,30.05,South,186,0.0,0.0,69,0.00,,SCT,0.00,VWS V14.01,2013-06-20 15:41:00,
2013-06-20 08:45:00,43.3,33.9,30.05,South,186,0.0,0.0,69,0.00,,SCT,0.00,VWS V14.01,2013-06-20 15:45:00,
2013-06-20 08:46:00,43.5,34.0,30.05,South,186,0.0,0.0,69,0.00,,SCT,0.00,VWS V14.01,2013-06-20 15:46:00,
2013-06-20 08:51:00,43.7,33.8,30.05,South,186,0.0,0.0,68,0.00,,SCT,0.00,VWS V14.01,2013-06-20 15:51:00,
2013-06-20 08:56:00,43.9,34.0,30.05,South,186,0.0,0.0,68,0.00,,SCT,0.00,VWS V14.01,2013-06-20 15:56:00,
2013-06-20 09:00:00,44.1,33.8,30.05,South,186,0.0,0.0,67,0.00,,SCT,0.00,VWS V14.01,2013-06-20 16:00:00,
2013-06-20 09:01:00,44.1,33.4,30.05,South,186,0.0,0.0,66,0.00,,SCT,0.00,VWS V14.01,2013-06-20 16:01:00,
2013-06-20 09:06:00,44.4,34.5,30.05,ESE,112,0.0,0.0,68,0.00,,SCT,0.00,VWS V14.01,2013-06-20 16:06:00,
2013-06-20 09:12:00,45.0,33.5,30.05,East,97,0.0,0.0,64,0.00,,SCT,0.00,VWS V14.01,2013-06-20 16:12:00,
2013-06-20 09:15:00,45.5,34.0,30.05,SE,141,0.0,4.0,64,0.00,,SCT,0.00,VWS V14.01,2013-06-20 16:15:00,
2013-06-20 09:17:00,45.7,33.8,30.05,South,172,0.0,0.0,63,0.00,,SCT,0.00,VWS V14.01,2013-06-20 16:17:00,
2013-06-20 09:22:00,46.0,30.3,30.05,SSW,202,0.0,6.3,54,0.00,,SCT,0.00,VWS V14.01,2013-06-20 16:22:00,
2013-06-20 09:27:00,46.2,30.0,30.05,SSE,159,3.1,6.3,53,0.00,,SCT,0.00,VWS V14.01,2013-06-20 16:27:00,
2013-06-20 09:30:00,46.2,30.0,30.05,SE,124,6.7,6.7,53,0.00,,SCT,0.00,VWS V14.01,2013-06-20 16:30:00,
2013-06-20 09:32:00,46.4,31.1,30.05,SE,142,5.4,6.7,55,0.00,,SCT,0.00,VWS V14.01,2013-06-20 16:32:00,
2013-06-20 09:37:00,46.6,30.8,30.05,ESE,112,0.0,6.7,54,0.00,,SCT,0.00,VWS V14.01,2013-06-20 16:37:00,
2013-06-20 09:42:00,46.9,30.7,30.05,SSW,192,0.0,6.7,53,0.00,,SCT,0.00,VWS V14.01,2013-06-20 16:42:00,
2013-06-20 09:45:00,46.9,31.2,30.05,East,96,0.0,6.7,54,0.00,,SCT,0.00,VWS V14.01,2013-06-20 16:45:00,
2013-06-20 09:47:00,47.1,30.4,30.05,SSE,156,4.0,4.0,52,0.00,,SCT,0.00,VWS V14.01,2013-06-20 16:47:00,
2013-06-20 09:52:00,47.1,29.9,30.05,SSE,149,3.6,5.8,51,0.00,,SCT,0.00,VWS V14.01,2013-06-20 16:52:00,
2013-06-20 09:57:00,47.8,30.6,30.05,ESE,109,5.4,5.8,51,0.00,,SCT,0.00,VWS V14.01,2013-06-20 16:57:00,
2013-06-20 10:00:00,47.8,29.6,30.05,SSW,206,4.0,5.8,49,0.00,,SCT,0.00,VWS V14.01,2013-06-20 17:00:00,
2013-06-20 10:02:00,47.8,30.1,30.05,South,177,5.4,5.4,50,0.00,,SCT,0.00,VWS V14.01,2013-06-20 17:02:00,
2013-06-20 10:07:00,47.8,29.1,30.05,SW,231,0.0,5.4,48,0.00,,SCT,0.00,VWS V14.01,2013-06-20 17:07:00,
2013-06-20 10:13:00,48.0,29.8,30.05,NW,318,0.0,5.4,49,0.00,,SCT,0.00,VWS V14.01,2013-06-20 17:13:00,
2013-06-20 10:15:00,48.0,29.3,30.05,SE,124,0.0,5.4,48,0.00,,SCT,0.00,VWS V14.01,2013-06-20 17:15:00,
2013-06-20 10:18:00,48.2,29.5,30.05,SE,124,0.0,0.0,48,0.00,,SCT,0.00,VWS V14.01,2013-06-20 17:18:00,
2013-06-20 10:23:00,48.6,29.3,30.05,ESE,119,0.0,0.0,47,0.00,,SCT,0.00,VWS V14.01,2013-06-20 17:23:00,
2013-06-20 10:28:00,49.1,30.8,30.05,ESE,112,0.0,4.0,49,0.00,,SCT,0.00,VWS V14.01,2013-06-20 17:28:00,
2013-06-20 10:30:00,49.5,30.1,30.05,South,170,0.0,4.0,47,0.00,,SCT,0.00,VWS V14.01,2013-06-20 17:30:00,
2013-06-20 10:33:00,49.5,29.6,30.05,SW,232,0.0,0.0,46,0.00,,SCT,0.00,VWS V14.01,2013-06-20 17:33:00,
2013-06-20 10:38:00,49.6,29.7,30.05,SSW,199,0.0,0.0,46,0.00,,SCT,0.00,VWS V14.01,2013-06-20 17:38:00,
2013-06-20 10:43:00,49.5,29.0,30.05,WSW,239,0.0,5.8,45,0.00,,SCT,0.00,VWS V14.01,2013-06-20 17:43:00,
2013-06-20 10:45:00,49.5,29.0,30.05,SSE,150,0.0,5.8,45,0.00,,SCT,0.00,VWS V14.01,2013-06-20 17:45:00,
2013-06-20 10:48:00,49.6,29.7,30.05,South,190,0.0,0.0,46,0.00,,SCT,0.00,VWS V14.01,2013-06-20 17:48:00,
2013-06-20 10:53:00,50.2,30.2,30.05,West,273,0.0,0.0,46,0.00,,SCT,0.00,VWS V14.01,2013-06-20 17:53:00,
2013-06-20 10:58:00,50.5,30.5,30.05,SSE,163,0.0,0.0,46,0.00,,SCT,0.00,VWS V14.01,2013-06-20 17:58:00,
2013-06-20 11:00:00,50.9,30.9,30.05,SSE,164,0.0,0.0,46,0.00,,SCT,0.00,VWS V14.01,2013-06-20 18:00:00,
2013-06-20 11:03:00,51.1,29.4,30.05,NNW,335,0.0,0.0,43,0.00,,SCT,0.00,VWS V14.01,2013-06-20 18:03:00,
2013-06-20 11:08:00,51.3,29.5,30.05,South,174,0.0,0.0,43,0.00,,SCT,0.00,VWS V14.01,2013-06-20 18:08:00,
2013-06-20 11:13:00,51.8,29.5,30.05,NNW,333,0.0,0.0,42,0.00,,SCT,0.00,VWS V14.01,2013-06-20 18:13:00,
2013-06-20 11:15:00,51.8,29.5,30.05,West,280,0.0,0.0,42,0.00,,SCT,0.00,VWS V14.01,2013-06-20 18:15:00,
2013-06-20 11:19:00,52.2,30.9,30.05,NW,325,0.0,4.0,44,0.00,,SCT,0.00,VWS V14.01,2013-06-20 18:19:00,
2013-06-20 11:24:00,52.5,30.1,30.05,NW,325,6.3,6.3,42,0.00,,SCT,0.00,VWS V14.01,2013-06-20 18:24:00,
2013-06-20 11:29:00,52.7,30.3,30.05,NW,325,0.0,6.3,42,0.00,,SCT,0.00,VWS V14.01,2013-06-20 18:29:00,
2013-06-20 11:30:00,52.7,30.9,30.05,NW,325,0.0,6.3,43,0.00,,SCT,0.00,VWS V14.01,2013-06-20 18:30:00,
2013-06-20 11:34:00,52.9,31.0,30.05,NNW,342,0.0,0.0,43,0.00,,SCT,0.00,VWS V14.01,2013-06-20 18:34:00,
2013-06-20 11:39:00,52.9,31.0,30.05,WNW,303,0.0,4.5,43,0.00,,SCT,0.00,VWS V14.01,2013-06-20 18:39:00,
2013-06-20 11:44:00,53.1,31.7,30.05,WNW,299,0.0,6.7,44,0.00,,SCT,0.00,VWS V14.01,2013-06-20 18:44:00,
2013-06-20 11:45:00,53.1,32.3,30.05,WNW,299,0.0,6.7,45,0.00,,SCT,0.00,VWS V14.01,2013-06-20 18:45:00,
2013-06-20 11:49:00,53.4,32.6,30.05,NNW,339,0.0,0.0,45,0.00,,SCT,0.00,VWS V14.01,2013-06-20 18:49:00,
2013-06-20 11:54:00,53.4,32.6,30.05,NNW,339,2.7,5.4,45,0.00,,SCT,0.00,VWS V14.01,2013-06-20 18:54:00,
2013-06-20 11:59:00,54.0,33.7,30.05,NNW,333,4.0,5.8,46,0.00,,SCT,0.00,VWS V14.01,2013-06-20 18:59:00,
2013-06-20 12:00:00,54.0,33.7,30.05,NW,324,2.2,5.8,46,0.00,,SCT,0.00,VWS V14.01,2013-06-20 19:00:00,
2013-06-20 12:04:00,54.9,32.2,30.05,North,0,3.6,8.7,42,0.00,,SCT,0.00,VWS V14.01,2013-06-20 19:04:00,
2013-06-20 12:09:00,55.6,33.5,30.05,ESE,121,0.0,8.7,43,0.00,,SCT,0.00,VWS V14.01,2013-06-20 19:09:00,
2013-06-20 12:15:00,55.9,32.0,30.05,NNW,337,5.4,8.7,40,0.00,,SCT,0.00,VWS V14.01,2013-06-20 19:15:00,
2013-06-20 12:20:00,55.9,32.0,30.05,NNE,25,2.2,8.1,40,0.00,,SCT,0.00,VWS V14.01,2013-06-20 19:20:00,
2013-06-20 12:25:00,56.7,32.0,30.05,NW,325,0.0,8.1,39,0.00,,SCT,0.00,VWS V14.01,2013-06-20 19:25:00,
2013-06-20 12:30:00,57.4,33.3,30.05,NW,319,0.0,8.1,40,0.00,,SCT,0.00,VWS V14.01,2013-06-20 19:30:00,
2013-06-20 12:35:00,57.9,32.5,30.05,NNW,341,2.7,8.3,38,0.00,,SCT,0.00,VWS V14.01,2013-06-20 19:35:00,
2013-06-20 12:40:00,57.9,31.8,30.05,NW,306,0.0,8.3,37,0.00,,SCT,0.00,VWS V14.01,2013-06-20 19:40:00,
2013-06-20 12:45:00,57.7,31.7,30.05,WSW,242,0.0,0.0,37,0.00,,SCT,0.00,VWS V14.01,2013-06-20 19:45:00,
2013-06-20 12:50:00,58.1,32.7,30.05,South,184,0.0,5.4,38,0.00,,SCT,0.00,VWS V14.01,2013-06-20 19:50:00,
2013-06-20 12:55:00,58.8,32.6,30.05,SW,221,0.0,5.4,37,0.00,,SCT,0.00,VWS V14.01,2013-06-20 19:55:00,
2013-06-20 13:00:00,59.0,32.8,30.05,WNW,284,0.0,0.0,37,0.00,,SCT,0.00,VWS V14.01,2013-06-20 20:00:00,
2013-06-20 13:05:00,58.8,32.6,30.05,NW,315,4.0,5.8,37,0.00,,SCT,0.00,VWS V14.01,2013-06-20 20:05:00,
2013-06-20 13:10:00,58.6,32.5,30.05,SSE,151,0.0,5.8,37,0.00,,SCT,0.00,VWS V14.01,2013-06-20 20:10:00,
2013-06-20 13:15:00,58.3,32.2,30.05,SW,232,3.6,3.6,37,0.00,,SCT,0.00,VWS V14.01,2013-06-20 20:15:00,
2013-06-20 13:21:00,58.8,32.6,30.05,West,272,0.0,3.6,37,0.00,,SCT,0.00,VWS V14.01,2013-06-20 20:21:00,
2013-06-20 13:26:00,58.8,32.6,30.05,WNW,294,4.9,5.4,37,0.00,,SCT,0.00,VWS V14.01,2013-06-20 20:26:00,
2013-06-20 13:30:00,58.3,32.2,30.05,WNW,293,4.0,5.4,37,0.00,,SCT,0.00,VWS V14.01,2013-06-20 20:30:00,
2013-06-20 13:31:00,58.1,31.3,30.05,East,80,0.0,4.0,36,0.00,,SCT,0.00,VWS V14.01,2013-06-20 20:31:00,
2013-06-20 13:36:00,57.9,31.8,30.05,WNW,287,0.0,4.0,37,0.00,,SCT,0.00,VWS V14.01,2013-06-20 20:36:00,
2013-06-20 13:41:00,57.2,31.2,30.05,South,177,0.0,4.0,37,0.00,,SCT,0.00,VWS V14.01,2013-06-20 20:41:00,
2013-06-20 13:45:00,57.2,31.2,30.05,SW,231,0.0,4.0,37,0.00,,SCT,0.00,VWS V14.01,2013-06-20 20:45:00,
2013-06-20 13:46:00,57.2,31.2,30.05,WNW,290,0.0,0.0,37,0.00,,SCT,0.00,VWS V14.01,2013-06-20 20:46:00,
2013-06-20 13:51:00,57.7,31.7,30.05,West,266,0.0,0.0,37,0.00,,SCT,0.00,VWS V14.01,2013-06-20 20:51:00,
2013-06-20 13:56:00,58.8,33.3,30.05,South,189,0.0,0.0,38,0.00,,SCT,0.00,VWS V14.01,2013-06-20 20:56:00,
2013-06-20 14:00:00,59.5,33.3,30.05,South,176,0.0,0.0,37,0.00,,SCT,0.00,VWS V14.01,2013-06-20 21:00:00,
2013-06-20 14:01:00,60.1,33.8,30.05,SE,145,0.0,0.0,37,0.00,,SCT,0.00,VWS V14.01,2013-06-20 21:01:00,
2013-06-20 14:06:00,60.4,33.4,30.05,ESE,105,0.0,0.0,36,0.00,,SCT,0.00,VWS V14.01,2013-06-20 21:06:00,
2013-06-20 14:12:00,60.8,33.7,30.05,SSW,210,0.0,0.0,36,0.00,,SCT,0.00,VWS V14.01,2013-06-20 21:12:00,
2013-06-20 14:15:00,60.6,33.5,30.05,ESE,123,0.0,0.0,36,0.00,,SCT,0.00,VWS V14.01,2013-06-20 21:15:00,
2013-06-20 14:17:00,60.8,33.0,30.05,SE,139,0.0,0.0,35,0.00,,SCT,0.00,VWS V14.01,2013-06-20 21:17:00,
2013-06-20 14:22:00,61.2,33.3,30.05,SW,233,0.0,0.0,35,0.00,,SCT,0.00,VWS V14.01,2013-06-20 21:22:00,
2013-06-20 14:27:00,62.4,34.4,30.05,WSW,256,3.6,5.8,35,0.00,,SCT,0.00,VWS V14.01,2013-06-20 21:27:00,
2013-06-20 14:30:00,62.4,34.4,30.05,West,277,4.0,5.8,35,0.00,,SCT,0.00,VWS V14.01,2013-06-20 21:30:00,
2013-06-20 14:32:00,62.2,34.3,30.05,West,267,0.0,4.0,35,0.00,,SCT,0.00,VWS V14.01,2013-06-20 21:32:00,
2013-06-20 14:37:00,62.8,34.8,30.05,WSW,253,0.0,4.0,35,0.00,,SCT,0.00,VWS V14.01,2013-06-20 21:37:00,
2013-06-20 14:42:00,63.0,34.2,30.05,SW,233,0.0,8.1,34,0.00,,SCT,0.00,VWS V14.01,2013-06-20 21:42:00,
2013-06-20 14:45:00,62.6,33.9,30.05,South,179,0.0,8.1,34,0.00,,SCT,0.00,VWS V14.01,2013-06-20 21:45:00,
2013-06-20 14:47:00,62.4,34.4,30.05,NNW,331,3.6,6.3,35,0.00,,SCT,0.00,VWS V14.01,2013-06-20 21:47:00,
2013-06-20 14:52:00,61.5,33.6,30.05,NNW,345,0.0,6.3,35,0.00,,SCT,0.00,VWS V14.01,2013-06-20 21:52:00,
2013-06-20 14:57:00,61.0,32.4,30.05,ESE,122,0.0,6.3,34,0.00,,SCT,0.00,VWS V14.01,2013-06-20 21:57:00,
2013-06-20 15:00:00,60.8,32.3,30.05,SSE,163,0.0,6.3,34,0.00,,SCT,0.00,VWS V14.01,2013-06-20 22:00:00,
2013-06-20 15:03:00,60.4,32.7,30.05,NNW,333,3.6,3.6,35,0.00,,SCT,0.00,VWS V14.01,2013-06-20 22:03:00,
2013-06-20 15:08:00,60.1,31.6,30.05,West,278,0.0,6.7,34,0.00,,SCT,0.00,VWS V14.01,2013-06-20 22:08:00,
2013-06-20 15:13:00,59.7,32.0,30.05,SSE,166,0.0,6.7,35,0.00,,SCT,0.00,VWS V14.01,2013-06-20 22:13:00,
2013-06-20 15:15:00,59.5,31.9,30.05,WNW,300,0.0,6.7,35,0.00,,SCT,0.00,VWS V14.01,2013-06-20 22:15:00,
2013-06-20 15:18:00,59.4,31.7,30.05,NW,322,0.0,0.0,35,0.00,,SCT,0.00,VWS V14.01,2013-06-20 22:18:00,
2013-06-20 15:23:00,59.5,31.9,30.05,SSE,156,0.0,6.3,35,0.00,,SCT,0.00,VWS V14.01,2013-06-20 22:23:00,
2013-06-20 15:28:00,59.7,32.0,30.05,NW,308,0.0,6.3,35,0.00,,SCT,0.00,VWS V14.01,2013-06-20 22:28:00,
2013-06-20 15:30:00,59.7,32.0,30.05,NW,306,0.0,6.3,35,0.00,,SCT,0.00,VWS V14.01,2013-06-20 22:30:00,
2013-06-20 15:33:00,60.1,32.4,30.05,West,277,0.0,0.0,35,0.00,,SCT,0.00,VWS V14.01,2013-06-20 22:33:00,
2013-06-20 15:38:00,60.4,32.0,30.05,NW,321,0.0,0.0,34,0.00,,SCT,0.00,VWS V14.01,2013-06-20 22:38:00,
2013-06-20 15:43:00,60.4,32.0,30.05,WNW,299,0.0,6.3,34,0.00,,SCT,0.00,VWS V14.01,2013-06-20 22:43:00,
2013-06-20 15:45:00,60.4,32.7,30.05,WNW,299,0.0,6.3,35,0.00,,SCT,0.00,VWS V14.01,2013-06-20 22:45:00,
2013-06-20 15:48:00,60.8,33.0,30.05,NNW,333,0.0,0.0,35,0.00,,SCT,0.00,VWS V14.01,2013-06-20 22:48:00,
2013-06-20 15:53:00,60.8,32.3,30.05,NE,45,0.0,5.4,34,0.00,,SCT,0.00,VWS V14.01,2013-06-20 22:53:00,
2013-06-20 15:58:00,61.7,33.1,30.05,SSW,200,0.0,5.4,34,0.00,,SCT,0.00,VWS V14.01,2013-06-20 22:58:00,
2013-06-20 16:00:00,61.9,33.2,30.05,SSW,200,0.0,5.4,34,0.00,,SCT,0.00,VWS V14.01,2013-06-20 23:00:00,
2013-06-20 16:04:00,62.4,33.7,30.05,South,190,0.0,3.1,34,0.00,,SCT,0.00,VWS V14.01,2013-06-20 23:04:00,
2013-06-20 16:09:00,63.1,34.3,30.05,NW,322,0.0,6.3,34,0.00,,SCT,0.00,VWS V14.01,2013-06-20 23:09:00,
2013-06-20 16:14:00,64.2,35.3,30.05,NW,326,2.7,7.6,34,0.00,,SCT,0.00,VWS V14.01,2013-06-20 23:14:00,
2013-06-20 16:15:00,64.4,34.7,30.05,SW,232,3.1,7.6,33,0.00,,SCT,0.00,VWS V14.01,2013-06-20 23:15:00,
2013-06-20 16:19:00,63.9,35.0,30.05,NNW,335,0.0,7.2,34,0.00,,SCT,0.00,VWS V14.01,2013-06-20 23:19:00,
2013-06-20 16:24:00,62.8,34.0,30.05,WNW,296,0.0,7.2,34,0.00,,SCT,0.00,VWS V14.01,2013-06-20 23:24:00,
2013-06-20 16:29:00,62.6,33.9,30.05,WNW,282,0.0,7.2,34,0.00,,SCT,0.00,VWS V14.01,2013-06-20 23:29:00,
2013-06-20 16:30:00,62.8,34.8,30.05,WNW,283,0.0,7.2,35,0.00,,SCT,0.00,VWS V14.01,2013-06-20 23:30:00,
2013-06-20 16:34:00,62.8,34.0,30.05,NNW,329,3.6,6.7,34,0.00,,SCT,0.00,VWS V14.01,2013-06-20 23:34:00,
2013-06-20 16:39:00,63.3,34.5,30.05,NNW,344,12.8,12.8,34,0.00,,SCT,0.00,VWS V14.01,2013-06-20 23:39:00,
2013-06-20 16:44:00,64.2,35.3,30.05,WNW,292,0.0,13.2,34,0.00,,SCT,0.00,VWS V14.01,2013-06-20 23:44:00,
2013-06-20 16:45:00,64.2,35.3,30.05,WNW,301,0.0,13.2,34,0.00,,SCT,0.00,VWS V14.01,2013-06-20 23:45:00,
2013-06-20 16:50:00,64.0,35.1,30.05,West,261,5.8,9.2,34,0.00,,SCT,0.00,VWS V14.01,2013-06-20 23:50:00,
2013-06-20 16:55:00,64.8,35.0,30.05,West,275,2.7,9.2,33,0.00,,SCT,0.00,VWS V14.01,2013-06-20 23:55:00,
2013-06-20 17:00:00,65.1,35.3,30.05,NW,308,8.1,9.2,33,0.00,,SCT,0.00,VWS V14.01,2013-06-21 00:00:00,
2013-06-20 17:05:00,65.1,35.3,30.05,NW,315,3.1,11.0,33,0.00,,SCT,0.00,VWS V14.01,2013-06-21 00:05:00,
2013-06-20 17:10:00,64.9,35.2,30.05,NW,306,4.0,11.0,33,0.00,,SCT,0.00,VWS V14.01,2013-06-21 00:10:00,
2013-06-20 17:15:00,64.6,34.8,30.05,NNW,345,3.1,6.3,33,0.00,,SCT,0.00,VWS V14.01,2013-06-21 00:15:00,
2013-06-20 17:20:00,64.4,34.7,30.05,NNW,335,0.0,8.7,33,0.00,,SCT,0.00,VWS V14.01,2013-06-21 00:20:00,
2013-06-20 17:25:00,64.4,34.7,30.05,WSW,250,0.0,8.7,33,0.00,,SCT,0.00,VWS V14.01,2013-06-21 00:25:00,
2013-06-20 17:30:00,64.2,35.3,30.05,NNW,335,5.8,5.8,34,0.00,,SCT,0.00,VWS V14.01,2013-06-21 00:30:00,
2013-06-20 17:35:00,64.4,34.7,30.05,NW,323,3.1,10.5,33,0.00,,SCT,0.00,VWS V14.01,2013-06-21 00:35:00,
2013-06-20 17:40:00,64.8,35.0,30.05,NNW,333,0.0,10.5,33,0.00,,SCT,0.00,VWS V14.01,2013-06-21 00:40:00,
2013-06-20 17:45:00,64.8,35.0,30.05,West,262,4.9,7.6,33,0.00,,SCT,0.00,VWS V14.01,2013-06-21 00:45:00,
2013-06-20 17:50:00,64.4,34.7,30.05,WNW,290,5.8,8.3,33,0.00,,SCT,0.00,VWS V14.01,2013-06-21 00:50:00,
2013-06-20 17:56:00,64.6,34.8,30.05,NW,315,6.7,8.3,33,0.00,,SCT,0.00,VWS V14.01,2013-06-21 00:56:00,
2013-06-20 18:00:00,64.4,34.7,30.05,NW,308,0.0,8.7,33,0.00,,SCT,0.00,VWS V14.01,2013-06-21 01:00:00,
2013-06-20 18:01:00,64.4,34.7,30.05,NNW,328,3.1,7.6,33,0.00,,SCT,0.00,VWS V14.01,2013-06-21 01:01:00,
2013-06-20 18:06:00,64.4,34.7,30.05,WNW,291,0.0,7.6,33,0.00,,SCT,0.00,VWS V14.01,2013-06-21 01:06:00,
2013-06-20 18:11:00,64.4,34.7,30.05,WNW,289,0.0,8.3,33,0.00,,SCT,0.00,VWS V14.01,2013-06-21 01:11:00,
2013-06-20 18:15:00,64.2,34.5,30.05,SW,229,2.7,11.9,33,0.00,,SCT,0.00,VWS V14.01,2013-06-21 01:15:00,
2013-06-20 18:16:00,64.2,34.5,30.05,SSE,165,0.0,8.1,33,0.00,,SCT,0.00,VWS V14.01,2013-06-21 01:16:00,
2013-06-20 18:21:00,64.0,34.4,30.08,WNW,300,0.0,8.1,33,0.00,,SCT,0.00,VWS V14.01,2013-06-21 01:21:00,
2013-06-20 18:26:00,63.9,35.0,30.08,NW,322,6.7,8.7,34,0.00,,SCT,0.00,VWS V14.01,2013-06-21 01:26:00,
2013-06-20 18:30:00,63.5,34.7,30.08,NNW,341,8.3,10.1,34,0.00,,SCT,0.00,VWS V14.01,2013-06-21 01:30:00,
2013-06-20 18:31:00,63.0,33.4,30.08,NW,326,4.0,8.3,33,0.00,,SCT,0.00,VWS V14.01,2013-06-21 01:31:00,
2013-06-20 18:36:00,61.5,32.9,30.08,WNW,295,0.0,8.7,34,0.00,,SCT,0.00,VWS V14.01,2013-06-21 01:36:00,
2013-06-20 18:41:00,60.6,32.8,30.08,WSW,244,0.0,8.7,35,0.00,,SCT,0.00,VWS V14.01,2013-06-21 01:41:00,
2013-06-20 18:45:00,60.1,32.4,30.08,NNW,340,5.4,8.7,35,0.00,,SCT,0.00,VWS V14.01,2013-06-21 01:45:00,
2013-06-20 19:56:00,58.6,33.8,30.08,North,353,7.6,7.6,39,0.00,,SCT,0.00,VWS V14.01,2013-06-21 02:56:00,
2013-06-20 20:00:00,58.3,34.1,30.08,NW,316,8.7,8.7,40,0.00,,SCT,0.00,VWS V14.01,2013-06-21 03:00:00,
2013-06-20 20:01:00,57.9,34.4,30.08,NNW,335,4.9,8.7,41,0.00,,SCT,0.00,VWS V14.01,2013-06-21 03:01:00,
2013-06-20 20:06:00,57.6,34.7,30.08,NNW,328,0.0,0.0,42,0.00,,SCT,0.00,VWS V14.01,2013-06-21 03:06:00,
2013-06-20 20:11:00,57.4,34.5,30.08,NW,319,3.6,8.7,42,0.00,,SCT,0.00,VWS V14.01,2013-06-21 03:11:00,
2013-06-20 20:15:00,57.4,35.1,30.08,WNW,300,5.8,8.7,43,0.00,,SCT,0.00,VWS V14.01,2013-06-21 03:15:00,
2013-06-20 20:16:00,57.2,34.9,30.08,NNW,339,4.9,5.8,43,0.00,,SCT,0.00,VWS V14.01,2013-06-21 03:16:00,
2013-06-20 20:22:00,56.8,35.2,30.08,West,271,0.0,5.8,44,0.00,,SCT,0.00,VWS V14.01,2013-06-21 03:22:00,
2013-06-20 20:27:00,56.7,35.6,30.08,WNW,303,0.0,5.8,45,0.00,,SCT,0.00,VWS V14.01,2013-06-21 03:27:00,
2013-06-20 20:30:00,56.3,35.2,30.08,NNW,345,3.6,5.8,45,0.00,,SCT,0.00,VWS V14.01,2013-06-21 03:30:00,
2013-06-20 20:32:00,55.9,34.9,30.08,NNW,345,0.0,3.6,45,0.00,,SCT,0.00,VWS V14.01,2013-06-21 03:32:00,
2013-06-20 20:37:00,55.4,35.0,30.11,NW,314,0.0,7.6,46,0.00,,SCT,0.00,VWS V14.01,2013-06-21 03:37:00,
2013-06-20 20:42:00,54.7,35.4,30.11,West,269,2.2,7.6,48,0.00,,SCT,0.00,VWS V14.01,2013-06-21 03:42:00,
2013-06-20 20:45:00,54.1,34.9,30.11,NW,319,4.0,7.6,48,0.00,,SCT,0.00,VWS V14.01,2013-06-21 03:45:00,
2013-06-20 20:47:00,53.8,35.1,30.11,NW,318,0.0,4.0,49,0.00,,SCT,0.00,VWS V14.01,2013-06-21 03:47:00,
2013-06-20 20:52:00,53.1,35.4,30.11,NNW,342,0.0,7.6,51,0.00,,SCT,0.00,VWS V14.01,2013-06-21 03:52:00,
2013-06-20 20:57:00,52.5,35.4,30.11,WNW,298,0.0,7.6,52,0.00,,SCT,0.00,VWS V14.01,2013-06-21 03:57:00,
2013-06-20 21:00:00,52.3,35.2,30.11,NNW,342,0.0,7.6,52,0.00,,SCT,0.00,VWS V14.01,2013-06-21 04:00:00,
2013-06-20 21:01:00,52.2,35.1,30.11,NNW,342,0.0,0.0,52,0.00,,SCT,0.00,VWS V14.01,2013-06-21 04:01:00,
2013-06-20 21:02:00,52.2,35.1,30.11,NNW,327,0.0,0.0,52,0.00,,SCT,0.00,VWS V14.01,2013-06-21 04:02:00,
2013-06-20 21:03:00,52.0,35.4,30.11,NNW,327,8.3,8.3,53,0.00,,SCT,0.00,VWS V14.01,2013-06-21 04:03:00,
2013-06-20 21:08:00,51.6,35.1,30.11,NW,322,0.0,8.3,53,0.00,,SCT,0.00,VWS V14.01,2013-06-21 04:08:00,
2013-06-20 21:13:00,51.1,35.0,30.11,NW,320,3.6,8.3,54,0.00,,SCT,0.00,VWS V14.01,2013-06-21 04:13:00,
2013-06-20 21:15:00,51.1,35.0,30.11,NW,322,4.0,8.3,54,0.00,,SCT,0.00,VWS V14.01,2013-06-21 04:15:00,
2013-06-20 21:18:00,50.7,34.7,30.11,NNW,328,0.0,4.9,54,0.00,,SCT,0.00,VWS V14.01,2013-06-21 04:18:00,
2013-06-20 21:23:00,50.5,35.0,30.11,NNW,329,0.0,4.9,55,0.00,,SCT,0.00,VWS V14.01,2013-06-21 04:23:00,
2013-06-20 21:28:00,50.4,34.8,30.11,NNW,330,0.0,4.9,55,0.00,,SCT,0.00,VWS V14.01,2013-06-21 04:28:00,
2013-06-20 21:30:00,50.2,34.7,30.11,NNW,329,0.0,4.9,55,0.00,,SCT,0.00,VWS V14.01,2013-06-21 04:30:00,
2013-06-20 21:33:00,50.0,34.5,30.11,NNW,334,0.0,0.0,55,0.00,,SCT,0.00,VWS V14.01,2013-06-21 04:33:00,
2013-06-20 21:38:00,49.6,34.6,30.11,NNW,330,6.3,6.3,56,0.00,,SCT,0.00,VWS V14.01,2013-06-21 04:38:00,
2013-06-20 21:43:00,49.3,34.3,30.11,NNW,327,0.0,6.3,56,0.00,,SCT,0.00,VWS V14.01,2013-06-21 04:43:00,
2013-06-20 21:45:00,49.3,34.7,30.11,NW,325,0.0,6.3,57,0.00,,SCT,0.00,VWS V14.01,2013-06-21 04:45:00,
2013-06-20 21:48:00,49.3,34.7,30.11,NW,324,0.0,0.0,57,0.00,,SCT,0.00,VWS V14.01,2013-06-21 04:48:00,
2013-06-20 21:53:00,49.3,34.7,30.11,NW,326,0.0,0.0,57,0.00,,SCT,0.00,VWS V14.01,2013-06-21 04:53:00,
2013-06-20 21:58:00,48.9,34.4,30.11,NNW,328,0.0,0.0,57,0.00,,SCT,0.00,VWS V14.01,2013-06-21 04:58:00,
2013-06-20 22:00:00,48.9,34.4,30.11,NNW,340,3.1,3.1,57,0.00,,SCT,0.00,VWS V14.01,2013-06-21 05:00:00,
2013-06-20 22:04:00,48.7,34.6,30.11,NNW,327,0.0,3.1,58,0.00,,SCT,0.00,VWS V14.01,2013-06-21 05:04:00,
2013-06-20 22:09:00,48.7,34.6,30.11,NNW,338,0.0,3.1,58,0.00,,SCT,0.00,VWS V14.01,2013-06-21 05:09:00,
2013-06-20 22:14:00,48.6,34.9,30.11,NNW,338,0.0,3.1,59,0.00,,SCT,0.00,VWS V14.01,2013-06-21 05:14:00,
2013-06-20 22:15:00,48.6,34.9,30.11,NNW,329,3.6,5.4,59,0.00,,SCT,0.00,VWS V14.01,2013-06-21 05:15:00,
2013-06-20 22:19:00,48.4,34.3,30.11,NW,324,3.6,5.8,58,0.00,,SCT,0.00,VWS V14.01,2013-06-21 05:19:00,
2013-06-20 22:24:00,48.2,34.6,30.11,NW,323,2.7,5.8,59,0.00,,SCT,0.00,VWS V14.01,2013-06-21 05:24:00,
2013-06-20 22:29:00,47.8,34.6,30.11,NNW,335,6.3,6.3,60,0.00,,SCT,0.00,VWS V14.01,2013-06-21 05:29:00,
2013-06-20 22:30:00,47.8,34.6,30.11,NW,319,3.6,6.3,60,0.00,,SCT,0.00,VWS V14.01,2013-06-21 05:30:00,
2013-06-20 22:34:00,47.8,35.1,30.11,NNW,338,0.0,4.5,61,0.00,,SCT,0.00,VWS V14.01,2013-06-21 05:34:00,
2013-06-20 22:39:00,47.7,34.9,30.11,NW,325,0.0,5.4,61,0.00,,SCT,0.00,VWS V14.01,2013-06-21 05:39:00,
2013-06-20 22:44:00,47.7,34.9,30.11,NNW,343,0.0,5.4,61,0.00,,SCT,0.00,VWS V14.01,2013-06-21 05:44:00,
2013-06-20 22:45:00,47.7,34.9,30.11,NNW,343,0.0,5.4,61,0.00,,SCT,0.00,VWS V14.01,2013-06-21 05:45:00,
2013-06-20 22:49:00,47.7,34.9,30.11,NNW,343,0.0,0.0,61,0.00,,SCT,0.00,VWS V14.01,2013-06-21 05:49:00,
2013-06-20 22:54:00,47.5,34.7,30.11,NNW,327,0.0,0.0,61,0.00,,SCT,0.00,VWS V14.01,2013-06-21 05:54:00,
2013-06-20 22:59:00,47.3,35.0,30.11,NNW,337,0.0,0.0,62,0.00,,SCT,0.00,VWS V14.01,2013-06-21 05:59:00,
2013-06-20 23:00:00,47.3,35.0,30.11,NNW,340,0.0,0.0,62,0.00,,SCT,0.00,VWS V14.01,2013-06-21 06:00:00,
2013-06-20 23:05:00,47.3,35.0,30.11,NNW,340,0.0,0.0,62,0.00,,SCT,0.00,VWS V14.01,2013-06-21 06:05:00,
2013-06-20 23:10:00,47.3,34.5,30.11,NNW,340,0.0,0.0,61,0.00,,SCT,0.00,VWS V14.01,2013-06-21 06:10:00,
2013-06-20 23:15:00,47.3,34.5,30.11,NNW,340,0.0,0.0,61,0.00,,SCT,0.00,VWS V14.01,2013-06-21 06:15:00,
2013-06-20 23:20:00,47.5,34.7,30.11,NNW,340,0.0,0.0,61,0.00,,SCT,0.00,VWS V14.01,2013-06-21 06:20:00,
2013-06-20 23:25:00,47.5,34.3,30.11,NNW,340,0.0,0.0,60,0.00,,SCT,0.00,VWS V14.01,2013-06-21 06:25:00,
2013-06-20 23:30:00,47.5,34.3,30.11,NNW,340,0.0,0.0,60,0.00,,SCT,0.00,VWS V14.01,2013-06-21 06:30:00,
2013-06-20 23:35:00,47.3,34.5,30.11,NNW,340,0.0,0.0,61,0.00,,SCT,0.00,VWS V14.01,2013-06-21 06:35:00,
2013-06-20 23:40:00,47.1,34.4,30.11,NNW,340,0.0,0.0,61,0.00,,SCT,0.00,VWS V14.01,2013-06-21 06:40:00,
2013-06-20 23:45:00,46.9,34.6,30.11,NNW,340,0.0,0.0,62,0.00,,SCT,0.00,VWS V14.01,2013-06-21 06:45:00,
2013-06-20 23:50:00,46.8,35.2,30.11,NNW,340,0.0,0.0,64,0.00,,SCT,0.00,VWS V14.01,2013-06-21 06:50:00,
2013-06-20 23:56:00,46.6,35.5,30.11,NNW,340,0.0,0.0,65,0.00,,SCT,0.00,VWS V14.01,2013-06-21 06:56:00,